Aérodrome :
LOGIN :

S'inscrire | Disclaimer

   EN    FR    IT 

 










Légende :    VFR   VFR Marginal   IFR   IFR Intensif   IFR Très Intensif
Visi : 
Plafond : 
>= 8 km
>= 3000ft
5 à 8 km
1000 à 3000 ft
1500m à 5 km
500 à 1000 ft
800 à 1500m
200 à 500 ft
< 800m
< 200 ft
Symboles :   Orages  Brouillard  Fortes neiges  Fortes précipitations  Vent > 20 kt
SIGMETs :   Divers  Orages  Givrage  Turbulence  Onde Orograph.  Cendres Volcan.







- Altitude de l'aérodrome : 1516 ft
- Code IATA : AGB


EDMA - Augsburg

DERNIER METAR :
  • 181750Z 08008KT 050V110 CAVOK 16/02 Q1023

METARs EXPIRÉS :
  • 181720Z 08011KT 050V110 CAVOK 18/01 Q1023
  • 181650Z 07010KT 040V100 CAVOK 18/02 Q1022
  • 181620Z 07013KT CAVOK 18/02 Q1022
  • 181550Z 07014KT CAVOK 18/02 Q1022
  • 181520Z 07015KT CAVOK 18/03 Q1022

TAF TAF EDMA
Valide du 18 à 18h jusqu'au 19 à 03h UTC


181700Z 1818/1903 07011KT CAVOK
BECMG 1818/1820 07006KT
Pas de NOTAMs connus pour ce terrain.



MET'MAP, la Météo Aéronautique d'un coup d'oeil ! - Copyright ORBIFLY Décembre 2007 - Disclaimer

ORBIFLY MET'MAP TEAM :

Programmation & Développement : Alexandra Zaïnal
Conception & Développement : Baudouin d'Aumeries
Co-Programmation & Développement : Marc-Olivier Méhu
Soutien technique & logistique : Manuel Goepfert

Contact : metmap@orbifly.com




SOURCES & CREDITS :

   NOAA